Time;durP1;ratioP1;P1;durP2;ratioP2;P2;SDS_P1;SDS_P2;PMS_P1;PMS_P2;Temp;Humidity;BMP_temperature;BMP_pressure;BME280_temperature;BME280_humidity;BME280_pressure;Samples;Min_cycle;Max_cycle;Signal;HPM_P1;HPM_P2
2023/06/08 00:02:02;;;;;;;10.00;4.00;;;;;;;21.11;67.08;99506.63;5036643;28;20026;-71
2023/06/08 00:04:30;;;;;;;9.65;3.92;;;;;;;21.13;67.30;99509.19;5037017;28;20033;-71
2023/06/08 00:06:56;;;;;;;8.57;4.07;;;;;;;21.08;67.21;99504.97;5037037;28;20061;-70
2023/06/08 00:09:21;;;;;;;10.05;4.43;;;;;;;21.08;67.31;99509.44;5036892;28;20037;-71
2023/06/08 00:11:48;;;;;;;9.37;3.90;;;;;;;21.09;67.32;99500.47;5036853;28;20025;-70
2023/06/08 00:14:13;;;;;;;8.40;3.90;;;;;;;21.07;67.66;99503.25;5036814;28;20022;-71
2023/06/08 00:16:39;;;;;;;10.57;4.47;;;;;;;21.00;68.13;99506.38;5035643;28;20036;-71
2023/06/08 00:19:07;;;;;;;11.60;4.28;;;;;;;21.00;67.89;99503.72;5036838;28;20024;-71
2023/06/08 00:21:33;;;;;;;10.98;4.32;;;;;;;20.99;68.09;99500.19;5036250;28;20083;-71
2023/06/08 00:23:59;;;;;;;10.00;4.25;;;;;;;20.98;68.19;99505.63;5027605;28;20022;-71
2023/06/08 00:26:26;;;;;;;10.90;4.43;;;;;;;20.98;67.96;99502.94;5036504;28;20116;-71
2023/06/08 00:28:51;;;;;;;10.13;4.20;;;;;;;20.99;67.95;99497.50;5036371;28;20021;-71
2023/06/08 00:31:17;;;;;;;7.72;3.92;;;;;;;20.97;68.60;99501.22;5018497;28;20035;-71
2023/06/08 00:33:43;;;;;;;8.93;4.13;;;;;;;20.97;68.25;99499.38;5036620;28;20029;-71
2023/06/08 00:36:09;;;;;;;10.93;4.97;;;;;;;20.89;68.80;99499.00;5048715;28;20091;-71
2023/06/08 00:38:35;;;;;;;9.85;4.15;;;;;;;20.84;69.19;99493.91;5036581;28;20021;-71
2023/06/08 00:41:01;;;;;;;11.67;4.13;;;;;;;20.90;68.40;99485.53;5036364;28;20036;-71
2023/06/08 00:43:26;;;;;;;8.45;4.20;;;;;;;20.91;68.81;99489.06;5036732;28;20017;-71
2023/06/08 00:45:52;;;;;;;9.03;4.30;;;;;;;20.89;68.65;99474.91;5036243;28;20089;-71
2023/06/08 00:48:18;;;;;;;11.20;4.35;;;;;;;20.94;69.00;99472.81;5036142;28;20045;-71
2023/06/08 00:50:46;;;;;;;11.63;5.20;;;;;;;20.93;68.84;99469.28;5036435;28;20544;-71
2023/06/08 00:53:12;;;;;;;9.15;4.43;;;;;;;20.88;69.42;99471.38;5018656;28;20180;-71
2023/06/08 00:55:38;;;;;;;10.15;4.68;;;;;;;20.85;69.34;99460.84;5036299;28;20100;-71
2023/06/08 00:58:04;;;;;;;9.17;4.07;;;;;;;20.79;69.45;99462.09;5036168;28;20076;-71
2023/06/08 01:00:29;;;;;;;10.82;4.70;;;;;;;20.82;69.43;99460.19;5036268;28;20029;-71
2023/06/08 01:02:56;;;;;;;11.03;4.77;;;;;;;20.70;70.25;99459.06;5035973;28;20030;-70
2023/06/08 01:05:23;;;;;;;7.78;4.13;;;;;;;20.76;69.90;99453.34;5035783;28;20425;-71
2023/06/08 01:08:15;;;;;;;9.30;4.80;;;;;;;20.75;69.93;99444.47;5036299;28;20025;-71
2023/06/08 01:10:57;;;;;;;9.45;4.63;;;;;;;20.73;69.92;99446.34;5036178;28;20053;-71
2023/06/08 01:13:49;;;;;;;9.20;4.90;;;;;;;20.76;70.18;99446.19;5024625;28;20124;-71
2023/06/08 01:16:17;;;;;;;14.27;4.73;;;;;;;20.73;70.08;99442.81;5035974;28;20024;-71
2023/06/08 01:18:44;;;;;;;7.78;4.25;;;;;;;20.70;70.17;99445.69;5035701;28;20049;-71
2023/06/08 01:21:41;;;;;;;11.43;4.60;;;;;;;20.64;71.03;99442.44;5036100;28;20029;-71
2023/06/08 01:24:15;;;;;;;12.05;5.22;;;;;;;20.65;70.66;99438.81;5036002;28;20026;-71
2023/06/08 01:26:49;;;;;;;8.90;4.47;;;;;;;20.67;70.42;99435.19;5036239;28;20034;-71
2023/06/08 01:29:15;;;;;;;8.20;4.40;;;;;;;20.59;70.79;99423.09;5039249;28;20022;-71
2023/06/08 01:31:41;;;;;;;8.43;4.40;;;;;;;20.52;71.44;99427.09;5039484;28;20025;-71
2023/06/08 01:34:09;;;;;;;11.18;4.85;;;;;;;20.57;70.89;99433.03;5039558;28;20081;-71
2023/06/08 01:36:51;;;;;;;8.02;4.38;;;;;;;20.57;71.90;99429.50;5047949;28;20013;-71
2023/06/08 01:39:30;;;;;;;13.02;4.80;;;;;;;20.55;71.66;99426.06;5026915;28;20039;-70
2023/06/08 01:42:00;;;;;;;8.30;4.43;;;;;;;20.56;71.21;99417.94;5034855;28;20030;-71
2023/06/08 01:44:28;;;;;;;9.68;4.55;;;;;;;20.61;70.88;99418.50;5021832;28;20026;-71
2023/06/08 01:46:56;;;;;;;9.25;4.88;;;;;;;20.57;71.00;99425.00;5038841;28;20053;-71
2023/06/08 01:49:27;;;;;;;9.45;4.65;;;;;;;20.61;70.76;99415.84;5039339;28;20026;-71
2023/06/08 01:51:53;;;;;;;8.68;4.88;;;;;;;20.57;70.93;99414.31;5021521;28;20036;-71
2023/06/08 01:54:22;;;;;;;11.37;4.97;;;;;;;20.62;71.12;99417.59;5039573;28;20067;-70
2023/06/08 01:56:47;;;;;;;13.00;5.20;;;;;;;20.60;70.99;99422.16;5039183;28;20025;-70
2023/06/08 01:59:13;;;;;;;10.93;4.80;;;;;;;20.55;71.22;99429.59;5039217;28;20528;-70
2023/06/08 02:01:38;;;;;;;9.33;4.93;;;;;;;20.51;71.74;99428.06;5038907;28;20100;-70
2023/06/08 02:04:04;;;;;;;11.00;4.90;;;;;;;20.54;71.60;99425.19;5039024;28;20028;-70
2023/06/08 02:06:29;;;;;;;9.80;4.57;;;;;;;20.51;71.92;99425.38;5039098;28;20022;-70
2023/06/08 02:08:54;;;;;;;8.30;4.80;;;;;;;20.58;71.29;99429.41;5039053;28;20292;-70
2023/06/08 02:11:21;;;;;;;7.70;4.43;;;;;;;20.58;71.32;99429.41;5039102;28;20031;-70
2023/06/08 02:13:46;;;;;;;8.73;4.63;;;;;;;20.61;70.84;99431.03;5038894;28;20023;-70
2023/06/08 02:16:12;;;;;;;9.80;4.57;;;;;;;20.62;71.05;99432.75;5038151;28;20492;-70
2023/06/08 02:18:41;;;;;;;9.77;5.40;;;;;;;20.63;71.22;99440.72;5038909;28;20017;-70
2023/06/08 02:21:10;;;;;;;11.35;5.10;;;;;;;20.61;71.61;99437.25;5038923;28;20013;-70
2023/06/08 02:23:35;;;;;;;8.35;5.15;;;;;;;20.64;71.29;99442.44;5038828;28;20088;-70
2023/06/08 02:26:01;;;;;;;8.63;5.00;;;;;;;20.65;71.01;99437.94;5038875;28;20017;-70
2023/06/08 02:28:26;;;;;;;8.87;4.87;;;;;;;20.67;71.06;99436.03;5038704;28;20160;-70
2023/06/08 02:30:52;;;;;;;8.73;5.10;;;;;;;20.68;71.42;99436.91;5038351;28;20264;-70
2023/06/08 02:33:17;;;;;;;10.27;4.93;;;;;;;20.69;71.20;99436.78;5038590;28;20037;-70
2023/06/08 02:35:43;;;;;;;10.33;5.00;;;;;;;20.68;71.59;99431.56;5043004;28;20461;-70
2023/06/08 02:38:08;;;;;;;10.13;5.50;;;;;;;20.64;71.90;99429.06;5020729;28;20028;-71
2023/06/08 02:40:33;;;;;;;10.65;5.82;;;;;;;20.65;71.54;99425.44;5037823;28;20026;-70
2023/06/08 02:42:59;;;;;;;9.33;5.50;;;;;;;20.65;71.72;99422.75;5038406;28;20035;-70
2023/06/08 02:45:26;;;;;;;13.57;5.32;;;;;;;20.62;71.88;99422.94;5038639;28;20064;-71
2023/06/08 02:47:52;;;;;;;10.03;4.80;;;;;;;20.64;71.38;99418.38;5038007;28;20416;-70
2023/06/08 02:50:17;;;;;;;9.98;5.20;;;;;;;20.59;71.68;99417.75;5038407;28;20064;-70
2023/06/08 02:52:43;;;;;;;10.07;5.35;;;;;;;20.57;71.95;99419.66;5038261;28;20037;-70
2023/06/08 02:55:08;;;;;;;11.50;5.17;;;;;;;20.60;71.52;99434.66;5038188;28;20104;-70
2023/06/08 02:57:34;;;;;;;12.90;5.33;;;;;;;20.58;71.86;99420.53;5038138;28;20420;-70
2023/06/08 03:00:00;;;;;;;9.77;5.20;;;;;;;20.56;71.81;99428.63;5038131;28;20025;-70
2023/06/08 03:02:27;;;;;;;11.38;5.47;;;;;;;20.59;71.71;99427.59;5020139;28;20397;-70
2023/06/08 03:04:53;;;;;;;13.38;5.57;;;;;;;20.59;72.06;99428.44;5038105;28;20037;-70
2023/06/08 03:07:19;;;;;;;10.45;5.35;;;;;;;20.60;72.04;99434.66;5037799;28;20033;-70
2023/06/08 03:09:44;;;;;;;12.50;6.30;;;;;;;20.53;72.57;99425.31;5038339;28;20060;-70
2023/06/08 03:12:12;;;;;;;13.37;6.10;;;;;;;20.53;72.25;99423.47;5019968;28;20073;-71
2023/06/08 03:14:40;;;;;;;11.65;5.82;;;;;;;20.54;71.95;99411.81;5037965;28;20022;-70
2023/06/08 03:17:06;;;;;;;9.73;5.10;;;;;;;20.54;71.99;99419.84;5019658;28;20025;-70
2023/06/08 03:19:32;;;;;;;12.30;5.70;;;;;;;20.55;72.31;99405.50;5038013;28;20036;-70
2023/06/08 03:22:04;;;;;;;10.65;5.93;;;;;;;20.54;72.25;99403.78;5020112;28;20508;-71
2023/06/08 03:24:31;;;;;;;11.48;5.70;;;;;;;20.59;72.25;99406.22;5037893;28;20025;-70
2023/06/08 03:26:56;;;;;;;10.45;5.70;;;;;;;20.63;72.07;99397.91;5037613;28;20468;-70
2023/06/08 03:29:22;;;;;;;11.40;5.47;;;;;;;20.67;71.71;99403.06;5037389;28;20048;-71
2023/06/08 03:31:47;;;;;;;10.00;5.63;;;;;;;20.67;71.91;99408.44;5019609;28;20029;-70
2023/06/08 03:34:13;;;;;;;10.77;5.53;;;;;;;20.68;71.98;99396.78;5037518;28;20112;-71
2023/06/08 03:36:38;;;;;;;11.83;5.87;;;;;;;20.69;72.00;99401.16;5037467;28;20030;-71
2023/06/08 03:39:04;;;;;;;10.63;5.60;;;;;;;20.71;71.80;99404.59;5037438;28;20060;-71
2023/06/08 03:41:30;;;;;;;10.02;5.78;;;;;;;20.74;71.79;99405.28;5037553;28;20036;-71
2023/06/08 03:43:56;;;;;;;10.70;5.70;;;;;;;20.74;71.64;99399.06;5037444;28;20033;-71
2023/06/08 03:46:22;;;;;;;7.90;5.30;;;;;;;20.71;72.29;99409.97;5037151;28;20495;-71
2023/06/08 03:48:50;;;;;;;10.52;5.20;;;;;;;20.74;71.88;99401.75;5037024;28;20060;-70
2023/06/08 03:51:17;;;;;;;10.23;5.03;;;;;;;20.74;71.67;99399.94;5037195;28;20097;-71
2023/06/08 03:53:43;;;;;;;11.38;5.30;;;;;;;20.75;71.82;99401.66;5037190;28;20030;-71
2023/06/08 03:56:08;;;;;;;10.83;5.53;;;;;;;20.79;71.39;99394.28;5037126;28;20026;-71
2023/06/08 03:58:34;;;;;;;9.68;5.70;;;;;;;20.79;71.39;99391.63;5037139;28;20411;-71
2023/06/08 04:00:59;;;;;;;11.50;5.53;;;;;;;20.80;71.66;99388.03;5036715;28;20116;-71
2023/06/08 04:03:25;;;;;;;10.57;5.47;;;;;;;20.71;71.92;99396.59;5037233;28;20028;-71
2023/06/08 04:05:51;;;;;;;13.52;5.72;;;;;;;20.75;71.57;99398.13;5019175;28;20036;-71
2023/06/08 04:08:17;;;;;;;9.15;5.70;;;;;;;20.76;71.97;99394.47;5036461;28;20065;-71
2023/06/08 04:10:43;;;;;;;8.80;5.70;;;;;;;20.75;72.00;99380.25;5037187;28;20039;-70
2023/06/08 04:13:08;;;;;;;12.93;5.60;;;;;;;20.77;71.87;99381.03;5036991;28;20100;-71
2023/06/08 04:15:34;;;;;;;11.77;5.50;;;;;;;20.77;71.50;99378.34;5036599;28;20540;-70
2023/06/08 04:18:02;;;;;;;11.03;6.10;;;;;;;20.72;71.94;99371.56;5036883;28;20279;-70
2023/06/08 04:20:28;;;;;;;11.05;5.85;;;;;;;20.65;72.07;99371.94;5036794;28;20036;-71
2023/06/08 04:22:53;;;;;;;10.90;6.20;;;;;;;20.62;72.05;99364.09;5036885;28;20037;-70
2023/06/08 04:25:19;;;;;;;11.45;6.20;;;;;;;20.56;72.56;99358.25;5036647;28;20026;-71
2023/06/08 04:27:46;;;;;;;10.70;5.37;;;;;;;20.58;71.75;99357.19;5036829;28;20061;-70
2023/06/08 04:30:12;;;;;;;11.00;5.70;;;;;;;20.56;72.33;99353.75;5017236;28;20033;-70
2023/06/08 04:32:37;;;;;;;10.98;6.18;;;;;;;20.55;72.36;99353.84;5036669;28;20051;-70
2023/06/08 04:35:04;;;;;;;10.77;5.90;;;;;;;20.57;72.16;99360.81;5024281;28;20024;-70
2023/06/08 04:37:30;;;;;;;12.50;6.10;;;;;;;20.55;72.51;99370.75;5036833;28;20264;-70
2023/06/08 04:39:56;;;;;;;12.13;6.00;;;;;;;20.51;72.72;99366.53;5036571;28;20037;-70
2023/06/08 04:42:23;;;;;;;11.90;6.03;;;;;;;20.44;72.81;99373.22;5036807;28;20025;-71
2023/06/08 04:44:50;;;;;;;9.57;5.32;;;;;;;20.51;72.72;99372.75;5036764;28;20026;-70
2023/06/08 04:47:16;;;;;;;12.40;5.80;;;;;;;20.54;72.23;99374.38;5036179;28;20064;-70
2023/06/08 04:49:42;;;;;;;11.65;5.88;;;;;;;20.58;72.40;99364.38;5036744;28;20087;-70
2023/06/08 04:52:09;;;;;;;12.30;5.65;;;;;;;20.58;72.54;99362.53;5036765;28;20025;-70
2023/06/08 04:54:36;;;;;;;13.20;5.85;;;;;;;20.61;72.32;99357.00;5019065;28;20068;-70
2023/06/08 04:57:03;;;;;;;11.93;6.07;;;;;;;20.60;72.38;99359.78;5036435;28;20025;-70
2023/06/08 04:59:28;;;;;;;10.60;5.50;;;;;;;20.61;72.29;99359.66;5036515;28;20031;-70
2023/06/08 05:01:54;;;;;;;12.03;5.97;;;;;;;20.70;72.14;99360.94;5036336;28;20085;-70
2023/06/08 05:04:20;;;;;;;14.45;5.43;;;;;;;20.91;71.02;99361.47;5039403;28;20033;-70
2023/06/08 05:06:46;;;;;;;9.60;5.30;;;;;;;21.02;70.88;99355.47;5040321;28;20520;-70
2023/06/08 05:09:12;;;;;;;10.13;5.70;;;;;;;21.04;70.55;99358.03;5040182;28;20056;-71
2023/06/08 05:11:38;;;;;;;10.32;5.38;;;;;;;21.05;70.87;99354.38;5040287;28;20025;-70
2023/06/08 05:14:03;;;;;;;12.90;5.93;;;;;;;21.11;70.79;99353.16;5022403;28;20049;-70
2023/06/08 05:16:29;;;;;;;8.45;5.30;;;;;;;21.12;70.88;99338.81;5039994;28;20014;-70
2023/06/08 05:18:54;;;;;;;9.23;5.30;;;;;;;21.11;70.49;99346.00;5039939;28;20036;-71
2023/06/08 05:21:20;;;;;;;11.47;5.33;;;;;;;21.12;70.75;99344.16;5039958;28;20033;-71
2023/06/08 05:23:45;;;;;;;10.17;4.90;;;;;;;21.07;70.59;99341.75;5039244;28;20025;-71
2023/06/08 05:26:10;;;;;;;9.57;5.60;;;;;;;21.05;70.88;99332.97;5021315;28;20029;-71
2023/06/08 05:28:36;;;;;;;10.83;4.80;;;;;;;21.19;70.22;99330.31;5039770;28;20036;-72
2023/06/08 05:31:02;;;;;;;11.27;5.40;;;;;;;21.23;70.67;99333.66;5039267;28;20029;-72
2023/06/08 05:33:27;;;;;;;11.50;5.30;;;;;;;21.23;70.46;99331.81;5037451;28;20029;-72
2023/06/08 05:35:52;;;;;;;9.93;5.30;;;;;;;21.26;70.47;99329.91;5037232;28;20112;-72
2023/06/08 05:38:19;;;;;;;8.93;5.27;;;;;;;21.29;70.34;99327.03;5032412;28;20025;-72
2023/06/08 05:40:45;;;;;;;11.00;5.28;;;;;;;21.29;70.31;99337.72;5034531;28;20113;-72
2023/06/08 05:43:11;;;;;;;9.30;4.67;;;;;;;21.21;70.75;99341.78;5030922;28;20057;-71
2023/06/08 05:45:36;;;;;;;10.98;5.40;;;;;;;21.14;70.58;99343.13;5018588;28;20026;-71
2023/06/08 05:48:02;;;;;;;11.77;5.77;;;;;;;21.18;70.80;99363.38;5039259;28;20049;-71
2023/06/08 05:50:27;;;;;;;11.93;5.37;;;;;;;21.19;70.57;99343.69;5039462;28;20037;-71
2023/06/08 05:52:52;;;;;;;13.55;5.20;;;;;;;21.21;70.58;99354.28;5021421;28;20037;-71
2023/06/08 05:55:18;;;;;;;12.17;5.53;;;;;;;21.16;71.04;99354.59;5019612;28;20628;-71
2023/06/08 05:57:43;;;;;;;9.30;5.00;;;;;;;21.21;70.65;99360.50;5020123;28;20444;-71
2023/06/08 06:00:11;;;;;;;10.63;5.53;;;;;;;21.25;70.86;99354.97;5038039;28;20053;-71
2023/06/08 06:02:38;;;;;;;11.10;5.35;;;;;;;21.25;70.74;99371.91;5036372;28;20084;-71
2023/06/08 06:05:04;;;;;;;10.75;5.18;;;;;;;21.22;70.87;99356.03;5035310;28;20037;-71
2023/06/08 06:07:29;;;;;;;10.63;5.97;;;;;;;21.29;70.48;99356.47;5020525;28;20026;-71
2023/06/08 06:09:54;;;;;;;9.37;5.37;;;;;;;21.33;70.65;99358.00;5016957;28;20030;-70
2023/06/08 06:12:20;;;;;;;11.70;5.63;;;;;;;21.39;70.28;99352.28;5033892;28;20030;-71
2023/06/08 06:14:45;;;;;;;11.87;5.77;;;;;;;21.40;70.50;99358.47;5029579;28;20042;-70
2023/06/08 06:17:11;;;;;;;10.37;5.60;;;;;;;21.47;70.32;99354.47;5027647;28;20261;-70
2023/06/08 06:19:37;;;;;;;12.33;5.80;;;;;;;21.44;70.17;99360.88;5032081;28;20494;-70
2023/06/08 06:22:08;;;;;;;11.50;5.43;;;;;;;21.50;69.89;99351.59;5036224;28;20413;-71
2023/06/08 06:24:34;;;;;;;11.77;5.40;;;;;;;21.61;69.83;99343.69;5032956;28;20096;-70
2023/06/08 06:27:01;;;;;;;11.57;5.78;;;;;;;21.62;69.61;99347.25;5033097;28;20037;-71
2023/06/08 06:29:27;;;;;;;10.97;5.60;;;;;;;21.62;69.58;99340.06;5032758;28;20030;-71
2023/06/08 06:31:52;;;;;;;11.07;6.03;;;;;;;21.68;69.18;99351.38;5036149;28;20033;-72
2023/06/08 06:34:19;;;;;;;12.25;5.13;;;;;;;21.73;69.26;99344.75;5038514;28;20085;-72
2023/06/08 06:36:44;;;;;;;11.87;5.80;;;;;;;21.68;69.29;99344.19;5024752;28;20052;-72
2023/06/08 06:39:10;;;;;;;11.55;5.93;;;;;;;21.72;68.91;99347.56;5020757;28;20056;-72
2023/06/08 06:41:35;;;;;;;10.90;5.63;;;;;;;21.74;69.11;99354.50;5038379;28;20030;-72
2023/06/08 06:44:00;;;;;;;8.20;5.30;;;;;;;21.73;69.18;99347.44;5038296;28;20037;-71
2023/06/08 06:46:26;;;;;;;10.70;5.63;;;;;;;21.74;68.80;99334.91;5037456;28;20075;-72
2023/06/08 06:48:51;;;;;;;9.52;5.97;;;;;;;21.84;68.41;99346.72;5038615;28;20467;-72
2023/06/08 06:51:17;;;;;;;12.23;5.87;;;;;;;21.90;68.41;99340.94;5038219;28;20097;-72
2023/06/08 06:53:43;;;;;;;10.27;5.80;;;;;;;22.00;68.33;99333.16;5038520;28;20060;-72
2023/06/08 06:56:08;;;;;;;9.93;5.25;;;;;;;22.07;67.95;99326.44;5037652;28;20017;-72
2023/06/08 06:58:34;;;;;;;11.07;5.00;;;;;;;22.14;68.06;99336.75;5038131;28;20037;-72
2023/06/08 07:01:01;;;;;;;10.73;5.32;;;;;;;22.25;67.65;99338.72;5037949;28;20120;-71
2023/06/08 07:03:27;;;;;;;9.75;5.65;;;;;;;22.19;67.36;99337.28;5038403;28;20037;-72
2023/06/08 07:05:59;;;;;;;9.33;4.97;;;;;;;22.32;67.06;99340.88;5037756;28;20025;-72
2023/06/08 07:08:28;;;;;;;12.18;5.75;;;;;;;22.42;66.97;99333.03;5038301;28;20103;-72
2023/06/08 07:10:53;;;;;;;12.88;5.60;;;;;;;22.54;66.66;99330.50;5037977;28;20414;-72
2023/06/08 07:13:19;;;;;;;11.05;5.50;;;;;;;22.61;66.27;99335.34;5038037;28;20025;-72
2023/06/08 07:15:44;;;;;;;10.03;5.77;;;;;;;22.67;65.83;99342.13;5037562;28;20151;-72
2023/06/08 07:18:10;;;;;;;10.87;5.10;;;;;;;22.77;65.35;99340.50;5037989;28;20101;-72
2023/06/08 07:20:35;;;;;;;9.35;5.07;;;;;;;22.93;64.50;99342.97;5038153;28;20029;-72
2023/06/08 07:23:01;;;;;;;9.60;4.77;;;;;;;23.14;64.12;99337.03;5037758;28;20036;-71
2023/06/08 07:25:26;;;;;;;8.50;4.90;;;;;;;23.41;63.33;99340.56;5019434;28;20103;-72
2023/06/08 07:27:51;;;;;;;10.17;4.60;;;;;;;23.66;62.37;99339.63;5020045;28;20541;-72
2023/06/08 07:30:17;;;;;;;10.43;5.30;;;;;;;23.69;61.25;99341.22;5037227;28;20033;-72
2023/06/08 07:32:46;;;;;;;10.95;4.70;;;;;;;23.77;61.38;99341.50;5037740;28;20072;-72
2023/06/08 07:35:11;;;;;;;10.32;4.40;;;;;;;23.74;60.81;99345.28;5043431;28;20029;-72
2023/06/08 07:37:37;;;;;;;9.57;5.00;;;;;;;23.68;60.81;99343.03;5037552;28;20109;-72
2023/06/08 07:40:11;;;;;;;10.35;4.40;;;;;;;23.74;59.85;99339.91;5037504;28;20041;-72
2023/06/08 07:42:37;;;;;;;9.27;4.50;;;;;;;23.95;59.51;99352.72;5037556;28;20025;-71
2023/06/08 07:45:03;;;;;;;9.77;4.43;;;;;;;23.99;59.26;99359.56;5037426;28;20030;-71
2023/06/08 07:47:28;;;;;;;9.10;4.35;;;;;;;24.11;59.02;99349.75;5037023;28;20050;-72
2023/06/08 07:49:54;;;;;;;9.37;4.03;;;;;;;24.01;59.02;99352.31;5037321;28;20040;-72
2023/06/08 07:52:20;;;;;;;10.10;4.75;;;;;;;23.82;58.91;99355.47;5036622;28;20102;-72
2023/06/08 07:54:45;;;;;;;7.83;4.03;;;;;;;23.80;59.44;99365.47;5036528;28;20037;-72
2023/06/08 07:57:11;;;;;;;9.83;4.50;;;;;;;23.83;58.94;99354.50;5029252;28;20021;-72
2023/06/08 07:59:37;;;;;;;10.68;4.03;;;;;;;23.99;58.72;99351.50;5037017;28;20397;-71
2023/06/08 08:02:02;;;;;;;9.97;4.20;;;;;;;24.07;58.42;99338.41;5037127;28;20041;-72
2023/06/08 08:04:28;;;;;;;7.95;4.30;;;;;;;24.22;57.72;99333.69;5037321;28;20017;-71
2023/06/08 08:06:53;;;;;;;8.50;4.30;;;;;;;24.30;57.37;99325.03;5037009;28;20482;-71
2023/06/08 08:09:19;;;;;;;7.77;4.37;;;;;;;24.28;57.08;99332.34;5036961;28;20421;-72
2023/06/08 08:11:44;;;;;;;10.03;4.37;;;;;;;24.28;57.01;99340.44;5037216;28;20025;-72
2023/06/08 08:14:10;;;;;;;9.10;3.70;;;;;;;24.32;57.24;99343.72;5037028;28;20025;-72
2023/06/08 08:16:39;;;;;;;6.80;3.97;;;;;;;24.49;56.32;99340.59;5036508;28;20029;-72
2023/06/08 08:19:05;;;;;;;8.20;4.60;;;;;;;24.60;56.25;99341.63;5019038;28;20029;-72
2023/06/08 08:21:31;;;;;;;8.75;4.55;;;;;;;24.64;55.97;99338.56;5037006;28;20056;-72
2023/06/08 08:23:56;;;;;;;9.20;4.53;;;;;;;24.72;56.06;99347.88;5018959;28;20029;-71
2023/06/08 08:26:22;;;;;;;11.90;4.40;;;;;;;24.77;55.71;99359.19;5036779;28;20065;-73
2023/06/08 08:28:47;;;;;;;8.10;4.20;;;;;;;24.90;55.93;99353.69;5036494;28;20033;-72
2023/06/08 08:31:13;;;;;;;8.13;4.00;;;;;;;24.77;56.06;99359.19;5036479;28;20029;-72
2023/06/08 08:33:38;;;;;;;9.32;4.75;;;;;;;24.80;55.92;99358.94;5018953;28;20029;-72
2023/06/08 08:36:05;;;;;;;10.10;4.60;;;;;;;24.78;55.74;99361.72;5041693;28;20036;-72
2023/06/08 08:38:30;;;;;;;9.55;4.43;;;;;;;24.78;56.10;99356.34;5021203;28;20399;-71
2023/06/08 08:41:06;;;;;;;10.13;4.33;;;;;;;24.81;55.87;99360.63;5040758;28;20029;-71
2023/06/08 08:44:01;;;;;;;8.55;4.00;;;;;;;24.74;55.96;99349.47;5040754;28;20037;-72
2023/06/08 08:46:30;;;;;;;7.18;4.05;;;;;;;24.71;56.04;99343.44;5032992;28;20037;-73
2023/06/08 08:49:00;;;;;;;12.85;4.97;;;;;;;24.55;56.14;99343.78;5040479;28;20033;-71
2023/06/08 08:51:25;;;;;;;11.17;4.50;;;;;;;24.49;56.13;99345.16;5040669;28;20040;-71
2023/06/08 08:53:51;;;;;;;9.23;4.60;;;;;;;24.54;56.06;99342.94;5040673;28;20029;-72
2023/06/08 08:56:21;;;;;;;11.37;4.50;;;;;;;24.72;56.37;99324.50;5040346;28;20033;-72
2023/06/08 08:58:53;;;;;;;12.48;4.47;;;;;;;24.94;55.88;99331.75;5022800;28;20052;-72
2023/06/08 09:01:19;;;;;;;9.70;4.07;;;;;;;25.20;55.65;99327.97;5040145;28;20021;-72
2023/06/08 09:03:47;;;;;;;9.20;4.33;;;;;;;25.44;55.08;99349.38;5040502;28;20025;-72
2023/06/08 09:06:13;;;;;;;9.65;4.05;;;;;;;25.53;54.83;99338.84;5040406;28;20024;-72
2023/06/08 09:08:39;;;;;;;12.67;4.47;;;;;;;25.63;54.38;99334.41;5040597;28;20108;-72
2023/06/08 09:11:06;;;;;;;9.43;4.10;;;;;;;25.64;54.02;99344.22;5040204;28;20029;-72
2023/06/08 09:13:34;;;;;;;8.88;3.90;;;;;;;25.71;54.40;99340.03;5040509;28;20063;-72
2023/06/08 09:16:17;;;;;;;7.63;3.85;;;;;;;25.80;54.02;99333.88;5039828;28;20025;-72
2023/06/08 09:18:43;;;;;;;7.43;3.90;;;;;;;25.80;53.41;99339.28;5022187;28;20516;-72
2023/06/08 09:21:40;;;;;;;11.60;4.35;;;;;;;25.59;53.92;99338.34;5040372;28;20098;-72
2023/06/08 09:24:22;;;;;;;9.60;4.53;;;;;;;25.55;54.03;99332.34;5024039;28;20493;-72
2023/06/08 09:26:56;;;;;;;9.98;4.10;;;;;;;25.54;54.39;99346.81;5039917;28;20022;-72
2023/06/08 09:29:40;;;;;;;7.63;4.13;;;;;;;25.55;54.17;99336.88;5018753;28;20053;-72
2023/06/08 09:32:13;;;;;;;11.70;3.90;;;;;;;25.70;54.16;99335.63;5037228;28;20022;-71
2023/06/08 09:34:56;;;;;;;10.40;4.40;;;;;;;25.70;54.19;99334.78;5043984;28;20013;-71
2023/06/08 09:37:26;;;;;;;7.93;4.40;;;;;;;25.69;54.40;99339.31;5010083;28;20022;-72
2023/06/08 09:39:51;;;;;;;10.70;4.00;;;;;;;25.64;54.62;99336.13;5039697;28;20428;-72
2023/06/08 09:42:16;;;;;;;9.43;4.33;;;;;;;25.55;54.13;99331.50;5039826;28;20035;-72
2023/06/08 09:44:42;;;;;;;9.37;3.97;;;;;;;25.57;54.24;99340.31;5039021;28;20397;-72
2023/06/08 09:47:20;;;;;;;8.20;4.10;;;;;;;25.80;53.50;99335.72;5039044;28;20050;-72
2023/06/08 09:49:45;;;;;;;10.25;4.00;;;;;;;26.13;53.06;99335.72;5039215;28;20885;-72
2023/06/08 09:52:11;;;;;;;7.10;4.00;;;;;;;26.45;52.73;99342.97;5039635;28;20032;-72
2023/06/08 09:54:37;;;;;;;9.00;4.23;;;;;;;26.60;52.54;99322.72;5039421;28;20319;-72
2023/06/08 09:57:05;;;;;;;7.50;3.70;;;;;;;26.80;51.38;99322.84;5021525;28;20025;-72
2023/06/08 09:59:40;;;;;;;8.25;4.40;;;;;;;26.68;50.83;99321.22;5039466;28;20037;-72
2023/06/08 10:02:18;;;;;;;9.63;4.45;;;;;;;26.66;51.69;99315.94;5039212;28;20115;-72
2023/06/08 10:04:53;;;;;;;10.27;4.65;;;;;;;26.69;50.90;99323.78;5021481;28;20053;-72
2023/06/08 10:07:24;;;;;;;6.50;3.80;;;;;;;26.89;50.13;99319.38;5021324;28;20079;-72
2023/06/08 10:09:59;;;;;;;7.72;3.75;;;;;;;26.94;49.36;99317.13;5039415;28;20108;-72
2023/06/08 10:12:29;;;;;;;8.63;4.28;;;;;;;27.12;49.86;99313.75;5021285;28;20072;-72
2023/06/08 10:14:56;;;;;;;9.23;4.28;;;;;;;27.22;49.47;99306.56;5038905;28;20029;-72
2023/06/08 10:17:22;;;;;;;8.00;4.40;;;;;;;27.33;49.38;99299.31;5038908;28;20041;-72
2023/06/08 10:19:48;;;;;;;7.87;3.90;;;;;;;27.29;48.65;99292.47;5039017;28;20025;-72
2023/06/08 10:22:13;;;;;;;9.15;4.15;;;;;;;27.37;48.93;99292.66;5021195;28;20036;-72
2023/06/08 10:24:39;;;;;;;9.73;3.87;;;;;;;27.62;48.50;99287.75;5038948;28;20029;-72
2023/06/08 10:27:23;;;;;;;10.25;3.80;;;;;;;27.71;48.04;99292.31;5038644;28;20100;-72
2023/06/08 10:29:59;;;;;;;8.73;3.90;;;;;;;27.62;48.54;99290.47;5038684;28;20485;-72
2023/06/08 10:32:45;;;;;;;10.43;3.92;;;;;;;27.71;47.78;99283.31;5038455;28;20029;-73
2023/06/08 10:35:10;;;;;;;11.77;4.00;;;;;;;27.71;47.21;99276.06;5043339;28;20025;-72
2023/06/08 10:37:38;;;;;;;9.40;4.17;;;;;;;27.90;47.54;99271.66;5020910;28;20033;-72
2023/06/08 10:40:11;;;;;;;6.90;3.97;;;;;;;28.03;47.29;99266.81;5038633;28;20060;-72
2023/06/08 10:42:37;;;;;;;8.70;3.88;;;;;;;28.22;47.34;99259.69;5038399;28;20029;-69
2023/06/08 10:45:04;;;;;;;9.15;3.90;;;;;;;28.18;46.72;99255.56;5038373;28;20072;-71
2023/06/08 10:47:35;;;;;;;7.20;3.70;;;;;;;28.38;46.73;99252.84;5038168;28;20046;-72
2023/06/08 10:50:03;;;;;;;9.73;3.80;;;;;;;28.52;46.03;99246.94;5038519;28;20048;-72
2023/06/08 10:52:38;;;;;;;6.93;3.60;;;;;;;28.52;45.63;99255.06;5020727;28;20087;-72
2023/06/08 10:55:11;;;;;;;7.63;3.28;;;;;;;28.62;45.57;99255.91;5038241;28;20427;-72
2023/06/08 10:57:41;;;;;;;7.35;4.00;;;;;;;28.64;45.77;99253.88;5038062;28;20033;-72
2023/06/08 11:00:31;;;;;;;10.67;3.43;;;;;;;28.61;44.40;99253.31;5037554;28;20053;-72
2023/06/08 11:03:06;;;;;;;7.78;3.72;;;;;;;28.85;44.73;99242.00;5027947;28;20045;-72
2023/06/08 11:05:33;;;;;;;7.10;4.00;;;;;;;28.98;44.93;99240.78;5038246;28;20034;-72
2023/06/08 11:08:00;;;;;;;8.80;3.53;;;;;;;28.96;44.72;99240.09;5037944;28;20017;-72
2023/06/08 11:10:26;;;;;;;8.88;3.40;;;;;;;29.13;44.64;99236.56;5020388;28;20052;-72
2023/06/08 11:12:51;;;;;;;11.73;3.50;;;;;;;29.18;44.56;99228.00;5037914;28;20026;-72
2023/06/08 11:15:18;;;;;;;8.65;3.50;;;;;;;29.29;44.33;99240.44;5037683;28;20017;-72
2023/06/08 11:17:50;;;;;;;9.02;3.70;;;;;;;29.27;44.67;99242.47;5019997;28;20022;-72
2023/06/08 11:20:16;;;;;;;11.13;4.00;;;;;;;29.34;44.43;99227.31;5037962;28;20021;-72
2023/06/08 11:22:41;;;;;;;7.85;3.17;;;;;;;29.40;43.65;99236.66;5020142;28;20022;-72
2023/06/08 11:25:08;;;;;;;8.70;3.60;;;;;;;29.42;43.29;99235.56;5037924;28;20754;-72
2023/06/08 11:27:41;;;;;;;9.82;4.00;;;;;;;29.41;43.17;99231.13;5037967;28;20025;-72
2023/06/08 11:30:08;;;;;;;11.65;3.78;;;;;;;29.45;43.36;99228.97;5017410;28;20108;-72
2023/06/08 11:32:35;;;;;;;9.25;4.10;;;;;;;29.31;43.43;99222.19;5037714;28;20029;-72